createdAt,value
2022-11-05T00:00:23.441Z,211.33
2022-11-05T00:01:23.504Z,210.65
2022-11-05T00:02:23.581Z,210.51
2022-11-05T00:03:23.589Z,210.65
2022-11-05T00:04:26.802Z,212.97
2022-11-05T00:05:24.385Z,212.97
2022-11-05T00:06:23.363Z,215.07
2022-11-05T00:07:23.353Z,215.07
2022-11-05T00:08:23.519Z,213.66
2022-11-05T00:09:23.342Z,213.80
2022-11-05T00:10:23.333Z,216.34
2022-11-05T00:11:23.320Z,215.07
2022-11-05T00:12:23.318Z,216.20
2022-11-05T00:13:23.471Z,217.92
2022-11-05T00:14:23.289Z,218.07
2022-11-05T00:15:23.283Z,220.12
2022-11-05T00:16:23.281Z,221.45
2022-11-05T00:17:23.252Z,221.15
2022-11-05T00:18:23.240Z,221.15
2022-11-05T00:19:23.616Z,222.35
2022-11-05T00:20:23.231Z,223.57
2022-11-05T00:21:23.201Z,221.45
2022-11-05T00:22:23.204Z,222.81
2022-11-05T00:23:23.230Z,222.20
2022-11-05T00:24:24.339Z,221.01
2022-11-05T00:25:23.500Z,221.90
2022-11-05T00:26:23.164Z,222.35
2022-11-05T00:27:23.145Z,221.15
2022-11-05T00:28:23.134Z,222.96
2022-11-05T00:29:23.144Z,221.30
2022-11-05T00:30:23.195Z,221.01
2022-11-05T00:31:23.317Z,222.65
2022-11-05T00:32:23.124Z,222.05
2022-11-05T00:33:23.084Z,222.96
2022-11-05T00:34:23.106Z,222.50
2022-11-05T00:35:23.060Z,222.20
2022-11-05T00:36:23.089Z,221.45
2022-11-05T00:37:23.381Z,221.45
2022-11-05T00:38:23.032Z,221.30
2022-11-05T00:39:23.020Z,222.65
2022-11-05T00:40:23.012Z,222.05
2022-11-05T00:41:22.992Z,219.67
2022-11-05T00:42:23.012Z,219.09
2022-11-05T00:43:23.203Z,220.12
2022-11-05T00:44:22.993Z,219.38
2022-11-05T00:45:22.981Z,219.38
2022-11-05T00:46:22.943Z,217.49
2022-11-05T00:47:22.923Z,217.20
2022-11-05T00:48:22.910Z,216.77
2022-11-05T00:49:23.066Z,216.20
2022-11-05T00:50:22.911Z,217.35
2022-11-05T00:51:22.939Z,216.20
2022-11-05T00:52:22.878Z,214.93
2022-11-05T00:53:23.067Z,214.22
2022-11-05T00:54:22.865Z,214.08
2022-11-05T00:55:22.845Z,214.50
2022-11-05T00:56:22.831Z,213.11
2022-11-05T00:57:22.833Z,213.66
2022-11-05T00:58:22.825Z,212.15
2022-11-05T00:59:22.972Z,212.42
2022-11-05T01:00:22.789Z,211.33
2022-11-05T01:01:22.830Z,210.65
2022-11-05T01:02:22.889Z,210.11
2022-11-05T01:03:22.759Z,210.78
2022-11-05T01:04:22.746Z,209.97
2022-11-05T01:05:22.919Z,210.65
2022-11-05T01:06:22.721Z,209.17
2022-11-05T01:07:22.715Z,209.84
2022-11-05T01:08:22.706Z,208.77
2022-11-05T01:09:22.688Z,209.04
2022-11-05T01:10:22.679Z,209.44
2022-11-05T01:11:22.842Z,209.97
2022-11-05T01:12:22.653Z,210.38
2022-11-05T01:13:22.654Z,210.92
2022-11-05T01:14:22.643Z,211.74
2022-11-05T01:15:22.628Z,211.05
2022-11-05T01:16:22.761Z,212.56
2022-11-05T01:17:22.939Z,212.15
2022-11-05T01:18:22.599Z,213.66
2022-11-05T01:19:22.608Z,211.87
2022-11-05T01:20:22.625Z,213.11
2022-11-05T01:21:22.558Z,211.33
2022-11-05T01:22:22.556Z,212.56
2022-11-05T01:23:22.775Z,211.33
2022-11-05T01:24:22.530Z,213.11
2022-11-05T01:25:22.519Z,211.74
2022-11-05T01:26:22.512Z,210.38
2022-11-05T01:27:22.499Z,213.53
2022-11-05T01:28:22.549Z,213.39
2022-11-05T01:29:22.802Z,212.83
2022-11-05T01:30:22.466Z,211.87
2022-11-05T01:31:22.470Z,213.66
2022-11-05T01:32:22.454Z,212.56
2022-11-05T01:33:22.431Z,213.11
2022-11-05T01:34:22.424Z,213.39
2022-11-05T01:35:22.564Z,213.11
2022-11-05T01:36:22.400Z,211.33
2022-11-05T01:37:22.388Z,210.92
2022-11-05T01:38:22.376Z,211.46
2022-11-05T01:39:22.366Z,212.28
2022-11-05T01:40:22.630Z,212.28
2022-11-05T01:41:22.341Z,211.19
2022-11-05T01:42:22.337Z,211.46
2022-11-05T01:43:22.323Z,211.33
2022-11-05T01:44:22.312Z,212.42
2022-11-05T01:45:22.319Z,212.28
2022-11-05T01:46:22.459Z,211.87
2022-11-05T01:47:22.292Z,210.78
2022-11-05T01:48:22.275Z,210.92
2022-11-05T01:49:22.261Z,211.33
2022-11-05T01:50:22.256Z,211.46
2022-11-05T01:51:22.238Z,211.33
2022-11-05T01:52:22.428Z,210.24
2022-11-05T01:53:22.403Z,211.05
2022-11-05T01:54:22.207Z,209.57
2022-11-05T01:55:22.186Z,208.51
2022-11-05T01:56:22.195Z,209.97
2022-11-05T01:57:22.172Z,208.77
2022-11-05T01:58:22.158Z,209.04
2022-11-05T01:59:22.331Z,208.24
2022-11-05T02:00:22.138Z,207.98
2022-11-05T02:01:22.272Z,209.44
2022-11-05T02:02:22.324Z,208.51
2022-11-05T02:03:22.108Z,209.57
2022-11-05T02:04:22.118Z,208.77
2022-11-05T02:05:22.259Z,209.71
2022-11-05T02:06:22.066Z,208.64
2022-11-05T02:07:22.063Z,210.51
2022-11-05T02:08:22.058Z,210.65
2022-11-05T02:09:22.037Z,211.05
2022-11-05T02:10:22.029Z,210.78
2022-11-05T02:11:30.723Z,209.84
2022-11-05T02:12:22.006Z,211.19
2022-11-05T02:13:22.003Z,210.92
2022-11-05T02:14:21.992Z,209.97
2022-11-05T02:15:21.966Z,211.05
2022-11-05T02:16:21.967Z,212.56
2022-11-05T02:17:22.277Z,213.94
2022-11-05T02:18:21.946Z,215.49
2022-11-05T02:19:21.930Z,215.63
2022-11-05T02:20:21.924Z,215.63
2022-11-05T02:21:21.908Z,216.20
2022-11-05T02:22:21.896Z,217.06
2022-11-05T02:23:22.067Z,217.35
2022-11-05T02:24:21.876Z,219.97
2022-11-05T02:25:21.869Z,218.79
2022-11-05T02:26:21.856Z,220.41
2022-11-05T02:27:21.848Z,219.97
2022-11-05T02:28:21.832Z,220.86
2022-11-05T02:29:21.992Z,222.81
2022-11-05T02:30:21.814Z,221.75
2022-11-05T02:31:21.804Z,221.30
2022-11-05T02:32:21.791Z,222.35
2022-11-05T02:33:21.926Z,222.35
2022-11-05T02:34:21.767Z,222.35
2022-11-05T02:35:21.761Z,221.75
2022-11-05T02:36:21.747Z,222.20
2022-11-05T02:37:21.734Z,221.60
2022-11-05T02:38:21.936Z,221.30
2022-11-05T02:39:21.717Z,219.09
2022-11-05T02:40:21.705Z,220.26
2022-11-05T02:41:21.701Z,220.26
2022-11-05T02:42:21.677Z,219.97
2022-11-05T02:43:21.674Z,217.63
2022-11-05T02:44:21.822Z,219.67
2022-11-05T02:45:21.646Z,219.67
2022-11-05T02:46:21.645Z,220.12
2022-11-05T02:47:21.627Z,218.79
2022-11-05T02:48:21.616Z,219.67
2022-11-05T02:49:21.780Z,219.67
2022-11-05T02:50:21.606Z,219.09
2022-11-05T02:51:21.584Z,218.65
2022-11-05T02:52:21.578Z,218.94
2022-11-05T02:53:21.578Z,220.71
2022-11-05T02:54:21.555Z,220.26
2022-11-05T02:55:21.705Z,220.41
2022-11-05T02:56:21.536Z,220.26
2022-11-05T02:57:21.523Z,220.71
2022-11-05T02:58:21.505Z,221.30
2022-11-05T02:59:21.506Z,222.35
2022-11-05T03:00:21.486Z,222.05
2022-11-05T03:01:21.738Z,221.45
2022-11-05T03:02:21.677Z,221.45
2022-11-05T03:03:21.468Z,220.86
2022-11-05T03:04:21.445Z,222.20
2022-11-05T03:05:21.437Z,222.05
2022-11-05T03:06:21.591Z,221.60
2022-11-05T03:07:21.412Z,223.57
2022-11-05T03:08:21.396Z,222.50
2022-11-05T03:09:21.389Z,222.35
2022-11-05T03:10:21.384Z,222.20
2022-11-05T03:11:21.368Z,222.65
2022-11-05T03:12:21.526Z,222.20
2022-11-05T03:13:21.354Z,221.90
2022-11-05T03:14:21.492Z,222.05
2022-11-05T03:15:21.324Z,219.67
2022-11-05T03:16:21.323Z,221.15
2022-11-05T03:17:21.303Z,220.71
2022-11-05T03:18:21.464Z,220.12
2022-11-05T03:19:21.368Z,219.38
2022-11-05T03:20:21.283Z,219.67
2022-11-05T03:21:21.253Z,221.60
2022-11-05T03:22:21.251Z,219.82
2022-11-05T03:23:21.425Z,218.07
2022-11-05T03:24:21.232Z,220.12
2022-11-05T03:25:21.212Z,218.21
2022-11-05T03:26:21.203Z,219.38
2022-11-05T03:27:21.199Z,219.23
2022-11-05T03:28:21.191Z,216.49
2022-11-05T03:29:21.335Z,219.67
2022-11-05T03:30:21.159Z,218.79
2022-11-05T03:31:21.163Z,219.23
2022-11-05T03:32:21.147Z,218.94
2022-11-05T03:33:21.163Z,218.21
2022-11-05T03:34:21.295Z,216.20
2022-11-05T03:35:21.112Z,217.49
2022-11-05T03:36:21.168Z,216.34
2022-11-05T03:37:21.088Z,216.77
2022-11-05T03:38:21.087Z,216.77
2022-11-05T03:39:21.067Z,216.49
2022-11-05T03:40:21.254Z,216.91
2022-11-05T03:41:21.075Z,216.91
2022-11-05T03:42:21.040Z,216.77
2022-11-05T03:43:21.024Z,215.63
2022-11-05T03:44:21.017Z,217.06
2022-11-05T03:45:21.185Z,216.34
2022-11-05T03:46:20.993Z,216.91
2022-11-05T03:47:21.000Z,218.36
2022-11-05T03:48:21.030Z,216.63
2022-11-05T03:49:20.959Z,216.63
2022-11-05T03:50:20.977Z,216.20
2022-11-05T03:51:21.099Z,217.20
2022-11-05T03:52:20.932Z,215.91
2022-11-05T03:53:20.917Z,216.77
2022-11-05T03:54:20.916Z,214.64
2022-11-05T03:55:20.892Z,216.49
2022-11-05T03:56:21.059Z,216.49
2022-11-05T03:57:20.879Z,215.07
2022-11-05T03:58:20.870Z,215.91
2022-11-05T03:59:20.857Z,216.91
2022-11-05T04:00:20.844Z,216.20
2022-11-05T04:01:20.897Z,214.78
2022-11-05T04:02:21.117Z,217.35
2022-11-05T04:03:20.802Z,216.77
2022-11-05T04:04:20.807Z,216.49
2022-11-05T04:05:20.804Z,215.77
2022-11-05T04:06:20.774Z,216.77
2022-11-05T04:07:20.942Z,215.91
2022-11-05T04:08:20.766Z,215.21
2022-11-05T04:09:20.789Z,213.39
2022-11-05T04:10:20.742Z,213.11
2022-11-05T04:11:20.743Z,213.66
2022-11-05T04:12:20.711Z,213.66
2022-11-05T04:13:20.864Z,213.53
2022-11-05T04:14:20.695Z,213.80
2022-11-05T04:15:20.686Z,214.64
2022-11-05T04:16:20.687Z,212.83
2022-11-05T04:17:20.846Z,213.80
2022-11-05T04:18:20.657Z,215.49
2022-11-05T04:19:26.019Z,213.80
2022-11-05T04:20:21.630Z,213.94
2022-11-05T04:21:20.620Z,215.63
2022-11-05T04:22:20.610Z,215.07
2022-11-05T04:23:20.761Z,215.07
2022-11-05T04:24:20.579Z,216.49
2022-11-05T04:25:20.570Z,216.77
2022-11-05T04:26:20.561Z,215.35
2022-11-05T04:27:20.545Z,214.64
2022-11-05T04:28:20.541Z,214.50
2022-11-05T04:29:20.681Z,213.94
2022-11-05T04:30:20.661Z,215.21
2022-11-05T04:31:20.528Z,216.20
2022-11-05T04:32:20.499Z,214.78
2022-11-05T04:33:20.490Z,213.25
2022-11-05T04:34:20.662Z,213.66
2022-11-05T04:35:20.461Z,213.39
2022-11-05T04:36:20.453Z,214.64
2022-11-05T04:37:20.450Z,212.83
2022-11-05T04:38:20.447Z,214.93
2022-11-05T04:39:20.433Z,213.53
2022-11-05T04:40:20.604Z,213.39
2022-11-05T04:41:20.397Z,215.35
2022-11-05T04:42:20.396Z,214.78
2022-11-05T04:43:20.778Z,213.39
2022-11-05T04:44:20.372Z,213.94
2022-11-05T04:45:20.576Z,214.08
2022-11-05T04:46:20.353Z,212.01
2022-11-05T04:47:20.334Z,211.33
2022-11-05T04:48:20.328Z,212.15
2022-11-05T04:49:20.314Z,210.51
2022-11-05T04:50:20.314Z,212.42
2022-11-05T04:51:20.537Z,211.46
2022-11-05T04:52:20.305Z,211.74
2022-11-05T04:53:20.260Z,211.74
2022-11-05T04:54:20.259Z,211.33
2022-11-05T04:55:20.239Z,211.19
2022-11-05T04:56:20.250Z,211.60
2022-11-05T04:57:20.399Z,212.42
2022-11-05T04:58:20.219Z,212.28
2022-11-05T04:59:20.212Z,211.60
2022-11-05T05:00:20.219Z,211.60
2022-11-05T05:01:20.354Z,211.74
2022-11-05T05:02:20.293Z,211.74
2022-11-05T05:03:20.369Z,211.87
2022-11-05T05:04:20.175Z,212.56
2022-11-05T05:05:20.168Z,212.28
2022-11-05T05:06:20.149Z,210.92
2022-11-05T05:07:20.125Z,211.87
2022-11-05T05:08:20.109Z,211.74
2022-11-05T05:09:20.247Z,211.60
2022-11-05T05:10:20.096Z,211.46
2022-11-05T05:11:20.088Z,209.84
2022-11-05T05:12:20.079Z,211.74
2022-11-05T05:13:20.283Z,211.05
2022-11-05T05:14:20.055Z,211.05
2022-11-05T05:15:20.044Z,210.65
2022-11-05T05:16:20.045Z,211.60
2022-11-05T05:17:20.014Z,210.51
2022-11-05T05:18:20.014Z,210.24
2022-11-05T05:19:20.232Z,209.97
2022-11-05T05:20:20.000Z,209.97
2022-11-05T05:21:19.980Z,210.78
2022-11-05T05:22:19.978Z,212.97
2022-11-05T05:23:19.959Z,213.39
2022-11-05T05:24:19.963Z,212.15
2022-11-05T05:25:20.147Z,214.08
2022-11-05T05:26:19.930Z,213.66
2022-11-05T05:27:19.919Z,213.66
2022-11-05T05:28:19.907Z,214.36
2022-11-05T05:29:19.886Z,213.66
2022-11-05T05:30:19.899Z,213.94
2022-11-05T05:31:20.048Z,217.20
2022-11-05T05:32:19.872Z,216.49
2022-11-05T05:33:19.863Z,214.50
2022-11-05T05:34:19.831Z,216.91
2022-11-05T05:35:19.830Z,215.07
2022-11-05T05:36:19.998Z,216.63
2022-11-05T05:37:19.799Z,216.34
2022-11-05T05:38:19.788Z,214.36
2022-11-05T05:39:29.490Z,213.11
2022-11-05T05:40:27.305Z,212.97
2022-11-05T05:41:19.789Z,211.60
2022-11-05T05:42:28.509Z,210.78
2022-11-05T05:43:27.256Z,210.51
2022-11-05T05:44:35.269Z,210.11
2022-11-05T05:45:19.856Z,209.97
2022-11-05T05:46:28.224Z,210.78
2022-11-05T05:47:28.446Z,209.71
2022-11-05T05:48:19.694Z,209.57
2022-11-05T05:49:19.675Z,207.45
2022-11-05T05:50:19.707Z,209.84
2022-11-05T05:51:19.658Z,209.84
2022-11-05T05:52:19.671Z,208.24
2022-11-05T05:53:19.806Z,209.57
2022-11-05T05:54:19.859Z,209.04
2022-11-05T05:55:19.638Z,208.77
2022-11-05T05:56:19.653Z,207.06
2022-11-05T05:57:19.592Z,208.24
2022-11-05T05:58:19.733Z,207.71
2022-11-05T05:59:19.562Z,205.63
2022-11-05T06:00:19.554Z,206.54
2022-11-05T06:01:20.223Z,206.41
2022-11-05T06:02:19.679Z,206.41
2022-11-05T06:03:19.684Z,206.41
2022-11-05T06:04:19.701Z,206.80
2022-11-05T06:05:19.492Z,205.12
2022-11-05T06:06:19.527Z,204.86
2022-11-05T06:07:19.507Z,205.50
2022-11-05T06:08:19.501Z,204.73
2022-11-05T06:09:19.522Z,203.46
2022-11-05T06:10:19.883Z,203.46
2022-11-05T06:11:19.445Z,203.09
2022-11-05T06:12:19.454Z,203.46
2022-11-05T06:13:19.463Z,202.71
2022-11-05T06:14:19.442Z,202.33
2022-11-05T06:15:19.631Z,200.36
2022-11-05T06:16:19.644Z,200.97
2022-11-05T06:17:19.393Z,197.23
2022-11-05T06:18:19.412Z,198.66
2022-11-05T06:19:19.364Z,194.88
2022-11-05T06:20:19.378Z,196.63
2022-11-05T06:21:19.583Z,194.77
2022-11-05T06:22:19.373Z,194.31
2022-11-05T06:23:19.300Z,193.16
2022-11-05T06:24:19.301Z,191.36
2022-11-05T06:25:19.332Z,192.03
2022-11-05T06:26:19.433Z,191.14
2022-11-05T06:27:19.442Z,191.70
2022-11-05T06:28:19.302Z,190.36
2022-11-05T06:29:19.240Z,187.96
2022-11-05T06:30:19.241Z,190.69
2022-11-05T06:31:19.253Z,189.37
2022-11-05T06:32:19.560Z,187.53
2022-11-05T06:33:19.193Z,190.58
2022-11-05T06:34:19.186Z,189.48
2022-11-05T06:35:19.224Z,188.72
2022-11-05T06:36:19.198Z,188.39
2022-11-05T06:37:19.189Z,187.75
2022-11-05T06:38:19.817Z,187.96
2022-11-05T06:39:19.192Z,187.00
2022-11-05T06:40:19.169Z,186.47
2022-11-05T06:41:19.174Z,186.47
2022-11-05T06:42:19.577Z,185.42
2022-11-05T06:43:19.199Z,184.60
2022-11-05T06:44:19.334Z,184.79
2022-11-05T06:45:19.100Z,185.83
2022-11-05T06:46:19.123Z,183.18
2022-11-05T06:47:19.061Z,186.04
2022-11-05T06:48:19.159Z,185.42
2022-11-05T06:49:19.293Z,185.83
2022-11-05T06:50:19.008Z,183.99
2022-11-05T06:51:19.010Z,182.58
2022-11-05T06:52:19.018Z,184.60
2022-11-05T06:53:18.988Z,182.98
2022-11-05T06:54:19.020Z,185.21
2022-11-05T06:55:19.197Z,185.01
2022-11-05T06:56:18.955Z,185.83
2022-11-05T06:57:19.021Z,185.21
2022-11-05T06:58:18.944Z,186.45
2022-11-05T06:59:19.111Z,185.21
2022-11-05T07:00:19.108Z,184.79
2022-11-05T07:01:19.104Z,186.45
2022-11-05T07:02:19.274Z,186.45
2022-11-05T07:03:19.108Z,184.79
2022-11-05T07:04:18.875Z,185.41
2022-11-05T07:05:18.859Z,186.45
2022-11-05T07:06:18.887Z,185.94
2022-11-05T07:07:18.842Z,185.94
2022-11-05T07:08:18.998Z,186.78
2022-11-05T07:09:18.829Z,186.15
2022-11-05T07:10:18.857Z,185.62
2022-11-05T07:11:18.804Z,184.89
2022-11-05T07:12:18.967Z,186.47
2022-11-05T07:13:18.760Z,185.10
2022-11-05T07:14:18.770Z,184.79
2022-11-05T07:15:18.743Z,185.62
2022-11-05T07:16:18.738Z,185.10
2022-11-05T07:17:18.748Z,187.32
2022-11-05T07:18:18.889Z,187.00
2022-11-05T07:19:18.701Z,186.15
2022-11-05T07:20:18.708Z,187.64
2022-11-05T07:21:18.667Z,187.00
2022-11-05T07:22:18.684Z,188.94
2022-11-05T07:23:18.666Z,189.15
2022-11-05T07:24:18.849Z,186.47
2022-11-05T07:25:18.627Z,187.75
2022-11-05T07:26:18.645Z,185.31
2022-11-05T07:27:18.617Z,185.73
2022-11-05T07:28:18.607Z,186.45
2022-11-05T07:29:18.597Z,185.62
2022-11-05T07:30:18.794Z,186.25
2022-11-05T07:31:18.614Z,184.89
2022-11-05T07:32:18.667Z,184.99
2022-11-05T07:33:18.577Z,185.73
2022-11-05T07:34:18.598Z,184.99
2022-11-05T07:35:18.608Z,186.15
2022-11-05T07:36:18.761Z,186.36
2022-11-05T07:37:18.536Z,186.04
2022-11-05T07:38:18.571Z,186.04
2022-11-05T07:39:18.527Z,186.36
2022-11-05T07:40:18.631Z,185.62
2022-11-05T07:41:18.726Z,186.47
2022-11-05T07:42:18.521Z,187.10
2022-11-05T07:43:18.530Z,186.89
2022-11-05T07:44:18.642Z,187.32
2022-11-05T07:45:18.457Z,187.96
2022-11-05T07:46:18.489Z,187.43
2022-11-05T07:47:18.590Z,187.53
2022-11-05T07:48:18.418Z,186.25
2022-11-05T07:49:18.402Z,187.10
2022-11-05T07:50:18.397Z,186.15
2022-11-05T07:51:18.367Z,185.83
2022-11-05T07:52:18.386Z,187.32
2022-11-05T07:53:18.647Z,186.78
2022-11-05T07:54:18.404Z,185.20
2022-11-05T07:55:18.354Z,186.47
2022-11-05T07:56:18.365Z,189.04
2022-11-05T07:57:18.505Z,189.70
2022-11-05T07:58:18.453Z,190.14
2022-11-05T07:59:18.351Z,189.37
2022-11-05T08:00:18.288Z,191.14
2022-11-05T08:01:18.402Z,190.58
2022-11-05T08:02:18.806Z,192.48
2022-11-05T08:03:19.053Z,193.96
2022-11-05T08:04:18.247Z,194.77
2022-11-05T08:05:18.247Z,197.70
2022-11-05T08:06:18.350Z,200.11
2022-11-05T08:07:18.266Z,198.90
2022-11-05T08:08:18.512Z,200.60
2022-11-05T08:09:18.416Z,202.33
2022-11-05T08:10:18.176Z,201.96
2022-11-05T08:11:18.301Z,202.71
2022-11-05T08:12:18.180Z,204.99
2022-11-05T08:13:18.656Z,206.41
2022-11-05T08:14:18.265Z,207.98
2022-11-05T08:15:18.324Z,209.97
2022-11-05T08:16:18.109Z,209.30
2022-11-05T08:17:18.608Z,208.51
2022-11-05T08:18:18.361Z,209.84
2022-11-05T08:19:22.079Z,209.30
2022-11-05T08:20:18.211Z,209.44
2022-11-05T08:21:18.064Z,210.51
2022-11-05T08:22:18.107Z,212.70
2022-11-05T08:23:18.042Z,214.08
2022-11-05T08:24:18.257Z,216.49
2022-11-05T08:25:18.297Z,217.49
2022-11-05T08:26:18.269Z,220.26
2022-11-05T08:27:18.082Z,220.12
2022-11-05T08:28:17.967Z,220.86
2022-11-05T08:29:18.060Z,223.57
2022-11-05T08:30:18.138Z,224.18
2022-11-05T08:31:17.964Z,224.94
2022-11-05T08:32:17.968Z,228.07
2022-11-05T08:33:18.162Z,230.48
2022-11-05T08:34:18.146Z,231.78
2022-11-05T08:35:17.956Z,231.61
2022-11-05T08:36:18.456Z,230.96
2022-11-05T08:37:17.944Z,234.26
2022-11-05T08:38:17.907Z,234.76
2022-11-05T08:39:17.853Z,235.77
2022-11-05T08:40:18.051Z,235.94
2022-11-05T08:41:17.835Z,234.93
2022-11-05T08:42:17.858Z,237.65
2022-11-05T08:43:17.825Z,238.69
2022-11-05T08:44:17.795Z,238.17
2022-11-05T08:45:17.798Z,237.48
2022-11-05T08:46:17.937Z,237.48
2022-11-05T08:47:17.760Z,238.34
2022-11-05T08:48:17.745Z,238.17
2022-11-05T08:49:17.756Z,239.39
2022-11-05T08:50:17.775Z,239.74
2022-11-05T08:51:18.076Z,242.57
2022-11-05T08:52:17.705Z,243.29
2022-11-05T08:53:17.727Z,245.66
2022-11-05T08:54:17.717Z,246.03
2022-11-05T08:55:17.654Z,247.89
2022-11-05T08:56:17.680Z,247.89
2022-11-05T08:57:17.854Z,249.96
2022-11-05T08:58:17.677Z,250.15
2022-11-05T08:59:17.659Z,249.96
2022-11-05T09:00:17.626Z,251.50
2022-11-05T09:01:17.737Z,252.46
2022-11-05T09:02:17.727Z,251.88
2022-11-05T09:03:17.896Z,250.15
2022-11-05T09:04:17.588Z,249.77
2022-11-05T09:05:17.581Z,249.39
2022-11-05T09:06:17.590Z,248.64
2022-11-05T09:07:17.553Z,247.33
2022-11-05T09:08:17.594Z,245.11
2022-11-05T09:09:17.740Z,245.84
2022-11-05T09:10:17.535Z,245.29
2022-11-05T09:11:17.504Z,244.56
2022-11-05T09:12:17.508Z,243.83
2022-11-05T09:13:19.896Z,245.11
2022-11-05T09:14:17.725Z,243.47
2022-11-05T09:15:17.474Z,244.93
2022-11-05T09:16:17.617Z,246.03
2022-11-05T09:17:17.474Z,246.58
2022-11-05T09:18:17.429Z,250.54
2022-11-05T09:19:17.476Z,253.63
2022-11-05T09:20:17.627Z,256.61
2022-11-05T09:21:17.434Z,257.42
2022-11-05T09:22:17.399Z,258.63
2022-11-05T09:23:17.375Z,260.69
2022-11-05T09:24:17.377Z,262.36
2022-11-05T09:25:17.358Z,262.99
2022-11-05T09:26:17.515Z,265.76
2022-11-05T09:27:17.359Z,269.91
2022-11-05T09:28:17.589Z,271.92
2022-11-05T09:29:17.324Z,275.11
2022-11-05T09:30:17.295Z,276.27
2022-11-05T09:31:17.386Z,276.97
2022-11-05T09:32:17.334Z,278.62
2022-11-05T09:33:17.295Z,279.09
2022-11-05T09:34:17.259Z,279.09
2022-11-05T09:35:17.262Z,279.57
2022-11-05T09:36:17.467Z,280.52
2022-11-05T09:37:17.254Z,278.86
2022-11-05T09:38:17.217Z,281.01
2022-11-05T09:39:17.238Z,282.70
2022-11-05T09:40:17.225Z,282.94
2022-11-05T09:41:17.180Z,282.94
2022-11-05T09:42:17.388Z,283.68
2022-11-05T09:43:17.190Z,283.43
2022-11-05T09:44:17.214Z,284.42
2022-11-05T09:45:17.151Z,280.29
2022-11-05T09:46:17.127Z,278.15
2022-11-05T09:47:17.128Z,276.51
2022-11-05T09:48:17.330Z,277.91
2022-11-05T09:49:17.093Z,276.27
2022-11-05T09:50:17.055Z,275.35
2022-11-05T09:51:23.482Z,276.51
2022-11-05T09:52:18.070Z,276.51
2022-11-05T09:53:17.215Z,274.88
2022-11-05T09:54:17.026Z,271.47
2022-11-05T09:55:17.011Z,269.91
2022-11-05T09:56:17.001Z,268.80
2022-11-05T09:57:16.992Z,266.40
2022-11-05T09:58:16.985Z,266.40
2022-11-05T09:59:17.145Z,265.54
2022-11-05T10:00:16.961Z,264.26
2022-11-05T10:01:17.096Z,261.31
2022-11-05T10:02:16.988Z,260.89
2022-11-05T10:03:16.934Z,260.89
2022-11-05T10:04:17.012Z,260.69
2022-11-05T10:05:17.104Z,260.69
2022-11-05T10:06:16.906Z,262.15
2022-11-05T10:07:16.892Z,262.78
2022-11-05T10:08:16.896Z,265.54
2022-11-05T10:09:16.864Z,265.76
2022-11-05T10:10:16.845Z,265.97
2022-11-05T10:11:16.874Z,263.83
2022-11-05T10:12:16.834Z,265.11
2022-11-05T10:13:16.820Z,268.58
2022-11-05T10:14:16.855Z,268.36
2022-11-05T10:15:16.801Z,264.90
2022-11-05T10:16:16.843Z,265.11
2022-11-05T10:17:16.792Z,267.05
2022-11-05T10:18:16.765Z,269.47
2022-11-05T10:19:16.765Z,269.24
2022-11-05T10:20:16.740Z,269.91
2022-11-05T10:21:16.738Z,267.49
2022-11-05T10:22:16.914Z,267.71
2022-11-05T10:23:16.714Z,269.69
2022-11-05T10:24:16.719Z,270.58
2022-11-05T10:25:24.212Z,271.70
2022-11-05T10:26:16.702Z,271.47
2022-11-05T10:27:16.843Z,270.80
2022-11-05T10:28:16.649Z,273.05
2022-11-05T10:29:16.651Z,272.60
2022-11-05T10:30:16.633Z,273.51
2022-11-05T10:31:16.654Z,275.35
2022-11-05T10:32:16.620Z,275.58
2022-11-05T10:33:16.803Z,275.58
2022-11-05T10:34:16.595Z,276.97
2022-11-05T10:35:16.590Z,279.33
2022-11-05T10:36:16.577Z,281.01
2022-11-05T10:37:16.573Z,280.52
2022-11-05T10:38:16.547Z,284.17
2022-11-05T10:39:16.742Z,286.90
2022-11-05T10:40:16.535Z,286.15
2022-11-05T10:41:16.534Z,286.40
2022-11-05T10:42:16.504Z,284.17
2022-11-05T10:43:17.181Z,283.43
2022-11-05T10:44:25.378Z,287.66
2022-11-05T10:45:16.472Z,284.66
2022-11-05T10:46:16.458Z,284.91
2022-11-05T10:47:16.447Z,284.91
2022-11-05T10:48:16.441Z,285.65
2022-11-05T10:49:16.418Z,288.67
2022-11-05T10:50:16.620Z,286.15
2022-11-05T10:51:16.407Z,287.15
2022-11-05T10:52:16.400Z,287.40
2022-11-05T10:53:16.397Z,287.66
2022-11-05T10:54:16.400Z,288.67
2022-11-05T10:55:16.369Z,290.20
2022-11-05T10:56:16.536Z,288.42
2022-11-05T10:57:16.344Z,287.91
2022-11-05T10:58:16.367Z,287.91
2022-11-05T10:59:16.329Z,286.40
2022-11-05T11:00:16.350Z,288.16
2022-11-05T11:01:16.353Z,287.66
2022-11-05T11:02:16.768Z,285.65
2022-11-05T11:03:16.284Z,286.40
2022-11-05T11:04:16.278Z,284.42
2022-11-05T11:05:16.262Z,283.43
2022-11-05T11:06:16.247Z,284.17
2022-11-05T11:07:16.238Z,283.43
2022-11-05T11:08:16.424Z,283.68
2022-11-05T11:09:16.217Z,282.94
2022-11-05T11:10:16.216Z,280.76
2022-11-05T11:11:16.188Z,281.01
2022-11-05T11:12:16.227Z,281.01
2022-11-05T11:13:16.390Z,282.46
2022-11-05T11:14:16.211Z,282.70
2022-11-05T11:15:16.187Z,279.57
2022-11-05T11:16:16.151Z,281.73
2022-11-05T11:17:16.151Z,274.88
2022-11-05T11:18:16.198Z,274.20
2022-11-05T11:19:16.278Z,271.47
2022-11-05T11:20:16.111Z,269.91
2022-11-05T11:21:23.614Z,271.92
2022-11-05T11:22:23.582Z,273.05
2022-11-05T11:23:23.588Z,271.70
2022-11-05T11:24:16.067Z,273.05
2022-11-05T11:25:16.221Z,274.88
2022-11-05T11:26:16.024Z,277.44
2022-11-05T11:27:19.898Z,277.44
2022-11-05T11:28:16.021Z,277.91
2022-11-05T11:29:16.179Z,282.21
2022-11-05T11:30:15.978Z,280.05
2022-11-05T11:31:15.986Z,281.01
2022-11-05T11:32:15.957Z,289.43
2022-11-05T11:33:15.956Z,293.58
2022-11-05T11:34:16.148Z,296.23
2022-11-05T11:35:15.933Z,298.38
2022-11-05T11:36:15.917Z,298.92
2022-11-05T11:37:19.404Z,300.57
2022-11-05T11:38:15.908Z,304.47
2022-11-05T11:39:15.902Z,305.32
2022-11-05T11:40:16.141Z,307.90
2022-11-05T11:41:15.884Z,311.11
2022-11-05T11:42:16.049Z,309.94
2022-11-05T11:43:15.882Z,309.64
2022-11-05T11:44:15.844Z,313.19
2022-11-05T11:45:15.858Z,317.43
2022-11-05T11:46:15.819Z,323.06
2022-11-05T11:47:15.808Z,327.25
2022-11-05T11:48:15.972Z,331.88
2022-11-05T11:49:15.799Z,338.04
2022-11-05T11:50:15.841Z,342.62
2022-11-05T11:51:15.779Z,346.97
2022-11-05T11:52:15.997Z,348.45
2022-11-05T11:53:15.917Z,354.09
2022-11-05T11:54:15.751Z,357.17
2022-11-05T11:55:15.732Z,359.91
2022-11-05T11:56:15.727Z,362.30
2022-11-05T11:57:15.729Z,365.53
2022-11-05T11:58:15.865Z,367.99
2022-11-05T11:59:15.698Z,370.90
2022-11-05T12:00:15.727Z,372.58
2022-11-05T12:01:15.661Z,373.01
2022-11-05T12:02:15.813Z,369.64
2022-11-05T12:03:16.314Z,365.53
2022-11-05T12:04:15.990Z,358.73
2022-11-05T12:05:15.629Z,357.17
2022-11-05T12:06:15.618Z,357.56
2022-11-05T12:07:15.608Z,357.56
2022-11-05T12:08:15.587Z,357.95
2022-11-05T12:09:15.578Z,360.70
2022-11-05T12:10:15.740Z,363.50
2022-11-05T12:11:15.559Z,363.10
2022-11-05T12:12:15.548Z,362.30
2022-11-05T12:13:15.579Z,361.90
2022-11-05T12:14:15.719Z,362.70
2022-11-05T12:15:15.537Z,364.31
2022-11-05T12:16:15.512Z,365.53
2022-11-05T12:17:15.527Z,363.10
2022-11-05T12:18:15.494Z,363.90
2022-11-05T12:19:15.479Z,364.71
2022-11-05T12:20:15.659Z,365.12
2022-11-05T12:21:24.905Z,367.16
2022-11-05T12:22:16.679Z,368.40
2022-11-05T12:23:15.439Z,368.40
2022-11-05T12:24:15.419Z,371.74
2022-11-05T12:25:15.444Z,372.16
2022-11-05T12:26:15.404Z,373.43
2022-11-05T12:27:15.403Z,372.58
2022-11-05T12:28:15.598Z,375.14